Time;durP1;ratioP1;P1;durP2;ratioP2;P2;SDS_P1;SDS_P2;PMS_P1;PMS_P2;Temp;Humidity;BMP_temperature;BMP_pressure;BME280_temperature;BME280_humidity;BME280_pressure;Samples;Min_cycle;Max_cycle;Signal;HPM_P1;HPM_P2
2023/03/14 00:01:28;;;;;;;18.23;3.67;;;18.90;1.00;;;;;;5070141;28;20051;-39
2023/03/14 00:03:54;;;;;;;16.25;3.88;;;18.90;1.00;;;;;;5064611;28;20052;-39
2023/03/14 00:06:22;;;;;;;10.90;3.05;;;18.80;1.00;;;;;;5065357;28;20055;-39
2023/03/14 00:08:49;;;;;;;14.52;3.47;;;18.80;1.00;;;;;;5073843;28;20458;-39
2023/03/14 00:11:18;;;;;;;14.98;3.13;;;18.80;1.00;;;;;;5073656;28;20044;-39
2023/03/14 00:13:52;;;;;;;13.88;3.63;;;18.70;1.00;;;;;;5069259;28;20032;-40
2023/03/14 00:16:19;;;;;;;17.58;3.20;;;18.70;1.00;;;;;;5065483;28;20098;-39
2023/03/14 00:18:47;;;;;;;14.52;3.08;;;18.70;1.00;;;;;;5073553;28;20041;-39
2023/03/14 00:21:14;;;;;;;16.38;3.25;;;18.70;1.00;;;;;;5073471;28;20127;-39
2023/03/14 00:23:42;;;;;;;14.82;4.03;;;18.60;1.00;;;;;;5072779;28;20492;-39
2023/03/14 00:26:14;;;;;;;12.77;3.08;;;18.60;1.00;;;;;;5073346;28;20047;-39
2023/03/14 00:28:42;;;;;;;16.70;4.05;;;18.60;1.00;;;;;;5073343;28;20043;-39
2023/03/14 00:31:11;;;;;;;17.40;3.22;;;18.50;1.00;;;;;;5072190;28;20045;-39
2023/03/14 00:33:39;;;;;;;13.90;3.70;;;18.50;1.00;;;;;;5072609;28;20450;-39
2023/03/14 00:36:09;;;;;;;13.00;3.47;;;18.50;1.00;;;;;;5055215;28;20102;-39
2023/03/14 00:38:38;;;;;;;16.23;2.97;;;18.50;1.00;;;;;;5073054;28;20037;-39
2023/03/14 00:41:10;;;;;;;14.75;4.35;;;18.40;1.00;;;;;;5055342;28;20056;-39
2023/03/14 00:43:38;;;;;;;16.08;3.78;;;18.40;1.00;;;;;;5072388;28;20044;-39
2023/03/14 00:46:05;;;;;;;14.25;3.70;;;18.40;1.00;;;;;;5073015;28;20439;-39
2023/03/14 00:48:32;;;;;;;11.00;4.53;;;18.30;1.00;;;;;;5072848;28;20123;-39
2023/03/14 00:51:00;;;;;;;16.63;3.70;;;18.30;1.00;;;;;;5072866;28;20124;-39
2023/03/14 00:53:27;;;;;;;15.18;4.45;;;18.30;1.00;;;;;;5054183;28;20064;-39
2023/03/14 00:55:54;;;;;;;18.15;3.78;;;18.30;1.00;;;;;;5054801;28;20102;-39
2023/03/14 00:58:21;;;;;;;17.25;3.67;;;18.30;1.00;;;;;;5054762;28;20041;-39
2023/03/14 01:00:48;;;;;;;14.80;3.97;;;18.20;1.00;;;;;;5072831;28;20040;-39
2023/03/14 01:03:16;;;;;;;11.77;2.92;;;18.20;1.00;;;;;;5071866;28;20032;-39
2023/03/14 01:05:43;;;;;;;14.18;3.03;;;18.20;1.00;;;;;;5054538;28;20083;-39
2023/03/14 01:08:11;;;;;;;21.80;4.45;;;18.20;1.00;;;;;;5054524;28;20487;-39
2023/03/14 01:10:40;;;;;;;14.70;3.80;;;18.10;1.00;;;;;;5072653;28;20127;-39
2023/03/14 01:13:08;;;;;;;11.93;2.58;;;18.10;1.00;;;;;;5071638;28;20562;-39
2023/03/14 01:15:36;;;;;;;17.25;4.78;;;18.10;1.00;;;;;;5072569;28;20092;-39
2023/03/14 01:18:04;;;;;;;16.52;3.88;;;18.00;1.00;;;;;;5072212;28;20044;-39
2023/03/14 01:20:31;;;;;;;10.98;2.97;;;18.00;1.00;;;;;;5072368;28;20487;-39
2023/03/14 01:22:58;;;;;;;15.20;4.72;;;18.00;1.00;;;;;;5071763;28;20051;-39
2023/03/14 01:25:25;;;;;;;15.23;2.38;;;18.00;1.00;;;;;;5072366;28;20090;-39
2023/03/14 01:27:52;;;;;;;13.30;3.60;;;17.90;1.00;;;;;;5072144;28;20090;-39
2023/03/14 01:30:18;;;;;;;14.88;2.95;;;18.00;1.00;;;;;;5072319;28;20106;-39
2023/03/14 01:32:45;;;;;;;12.02;3.90;;;17.90;1.00;;;;;;5053263;28;20487;-39
2023/03/14 01:35:12;;;;;;;17.17;4.82;;;17.90;1.00;;;;;;5054184;28;20515;-39
2023/03/14 01:37:39;;;;;;;12.65;2.50;;;17.80;1.00;;;;;;5054249;28;20415;-39
2023/03/14 01:40:13;;;;;;;13.30;3.00;;;17.80;1.00;;;;;;5054186;28;20096;-39
2023/03/14 01:42:53;;;;;;;11.30;3.53;;;17.80;1.00;;;;;;5053117;28;20049;-39
2023/03/14 01:45:57;;;;;;;9.15;2.88;;;17.80;1.00;;;;;;5054052;28;20052;-39
2023/03/14 01:48:33;;;;;;;17.92;3.30;;;17.80;1.00;;;;;;5054031;28;20152;-39
2023/03/14 01:51:01;;;;;;;14.30;3.85;;;17.70;1.00;;;;;;5053983;28;20128;-39
2023/03/14 01:53:29;;;;;;;15.00;3.58;;;17.70;1.00;;;;;;5053127;28;20519;-39
2023/03/14 01:55:57;;;;;;;18.15;4.50;;;17.70;1.00;;;;;;5054010;28;20048;-39
2023/03/14 01:58:27;;;;;;;10.57;2.28;;;17.70;1.00;;;;;;5071719;28;20461;-39
2023/03/14 02:00:57;;;;;;;13.48;3.20;;;17.70;1.00;;;;;;5072047;28;20120;-39
2023/03/14 02:03:26;;;;;;;13.60;3.42;;;17.70;1.00;;;;;;5053328;28;20052;-39
2023/03/14 02:05:55;;;;;;;11.73;2.88;;;17.60;1.00;;;;;;5053940;28;20106;-39
2023/03/14 02:08:24;;;;;;;22.27;3.53;;;17.60;1.00;;;;;;5053431;28;20500;-39
2023/03/14 02:10:55;;;;;;;11.98;3.95;;;17.60;1.00;;;;;;5053873;28;20048;-40
2023/03/14 02:13:46;;;;;;;16.77;3.10;;;17.60;1.00;;;;;;5033033;28;20053;-39
2023/03/14 02:16:31;;;;;;;13.63;3.22;;;17.50;1.00;;;;;;5071621;28;20060;-39
2023/03/14 02:19:15;;;;;;;13.63;3.22;;;17.50;1.00;;;;;;5071613;28;20051;-39
2023/03/14 02:22:07;;;;;;;19.55;3.33;;;17.50;1.00;;;;;;5053726;28;20056;-39
2023/03/14 02:24:50;;;;;;;13.02;3.38;;;17.50;1.00;;;;;;5053516;28;20072;-39
2023/03/14 02:27:19;;;;;;;13.82;2.83;;;17.50;1.00;;;;;;5053546;28;20357;-39
2023/03/14 02:29:56;;;;;;;16.73;3.60;;;17.40;1.00;;;;;;5053499;28;20450;-39
2023/03/14 02:32:24;;;;;;;12.82;3.35;;;17.40;1.00;;;;;;5053201;28;20040;-39
2023/03/14 02:34:59;;;;;;;12.52;2.58;;;17.40;1.00;;;;;;5053215;28;20068;-39
2023/03/14 02:37:50;;;;;;;15.75;3.72;;;17.40;1.00;;;;;;5071357;28;20090;-39
2023/03/14 02:40:18;;;;;;;15.15;2.85;;;17.40;1.00;;;;;;5053609;28;20040;-39
2023/03/14 02:42:46;;;;;;;21.23;4.13;;;17.30;1.00;;;;;;5052675;28;20048;-39
2023/03/14 02:45:13;;;;;;;14.75;3.30;;;17.30;1.00;;;;;;5053628;28;20098;-39
2023/03/14 02:47:54;;;;;;;13.88;2.95;;;17.30;1.00;;;;;;5053796;28;20097;-39
2023/03/14 02:50:26;;;;;;;16.80;2.72;;;17.30;1.00;;;;;;5053445;28;20090;-39
2023/03/14 02:52:53;;;;;;;16.13;3.17;;;17.30;1.00;;;;;;5070488;28;20072;-39
2023/03/14 02:55:25;;;;;;;15.80;2.72;;;17.30;1.00;;;;;;5057176;28;20052;-39
2023/03/14 02:57:55;;;;;;;18.35;3.60;;;17.30;1.00;;;;;;5057129;28;20132;-39
2023/03/14 03:00:22;;;;;;;22.98;4.00;;;17.20;1.00;;;;;;5056906;28;20545;-39
2023/03/14 03:02:50;;;;;;;14.02;4.05;;;17.20;1.00;;;;;;5056308;28;20428;-39
2023/03/14 03:05:17;;;;;;;14.07;2.70;;;17.20;1.00;;;;;;5057119;28;20047;-39
2023/03/14 03:07:44;;;;;;;15.32;4.22;;;17.20;1.00;;;;;;5074864;28;20563;-39
2023/03/14 03:10:17;;;;;;;12.65;3.58;;;17.20;1.00;;;;;;5074769;28;20044;-39
2023/03/14 03:12:44;;;;;;;21.38;3.88;;;17.10;1.00;;;;;;5056250;28;20040;-39
2023/03/14 03:15:11;;;;;;;16.25;4.05;;;17.10;1.00;;;;;;5056728;28;20052;-39
2023/03/14 03:17:37;;;;;;;15.18;4.47;;;17.10;1.00;;;;;;5074702;28;20496;-39
2023/03/14 03:20:08;;;;;;;12.55;2.63;;;17.10;1.00;;;;;;5056832;28;20560;-39
2023/03/14 03:22:36;;;;;;;22.73;3.80;;;17.10;1.00;;;;;;5074343;28;20072;-39
2023/03/14 03:25:08;;;;;;;9.93;3.03;;;17.10;1.00;;;;;;5056763;28;20053;-38
2023/03/14 03:27:36;;;;;;;14.30;3.40;;;17.10;1.00;;;;;;5056706;28;20352;-39
2023/03/14 03:30:05;;;;;;;14.13;4.57;;;17.10;1.00;;;;;;5056330;28;20068;-38
2023/03/14 03:32:34;;;;;;;19.17;4.63;;;17.00;1.00;;;;;;5056157;28;20059;-38
2023/03/14 03:35:03;;;;;;;11.82;2.88;;;17.10;1.00;;;;;;5056280;28;20464;-39
2023/03/14 03:37:34;;;;;;;18.27;3.40;;;17.10;1.00;;;;;;5056558;28;20522;-39
2023/03/14 03:40:05;;;;;;;11.60;3.13;;;17.00;1.00;;;;;;5056341;28;20286;-39
2023/03/14 03:42:34;;;;;;;15.77;3.85;;;17.00;1.00;;;;;;5073950;28;20052;-39
2023/03/14 03:45:02;;;;;;;12.18;4.35;;;17.00;1.00;;;;;;5056023;28;20044;-39
2023/03/14 03:47:34;;;;;;;22.70;4.20;;;16.90;1.00;;;;;;5040507;28;20048;-39
2023/03/14 03:50:03;;;;;;;17.52;3.95;;;16.90;1.00;;;;;;5056132;28;20088;-39
2023/03/14 03:52:32;;;;;;;13.80;2.70;;;16.90;1.00;;;;;;5055644;28;20050;-38
2023/03/14 03:54:59;;;;;;;16.30;3.20;;;16.90;1.00;;;;;;5055621;28;20140;-39
2023/03/14 03:57:27;;;;;;;11.70;2.83;;;16.90;1.00;;;;;;5056078;28;20045;-39
2023/03/14 03:59:55;;;;;;;17.75;3.33;;;16.90;1.00;;;;;;5055948;28;20056;-38
2023/03/14 04:02:22;;;;;;;16.88;2.72;;;16.90;1.00;;;;;;5055681;28;20052;-39
2023/03/14 04:04:50;;;;;;;11.35;3.17;;;16.90;1.00;;;;;;5055298;28;20132;-39
2023/03/14 04:07:17;;;;;;;11.48;3.35;;;16.90;1.00;;;;;;5055893;28;20133;-39
2023/03/14 04:09:44;;;;;;;14.45;3.60;;;16.80;1.00;;;;;;5073609;28;20045;-39
2023/03/14 04:12:37;;;;;;;15.32;4.93;;;16.80;1.00;;;;;;5069637;28;20041;-39
2023/03/14 04:15:11;;;;;;;17.35;3.67;;;16.80;1.00;;;;;;5055791;28;20072;-39
2023/03/14 04:17:44;;;;;;;15.63;3.40;;;16.80;1.00;;;;;;5055639;28;20131;-39
2023/03/14 04:20:13;;;;;;;11.75;4.28;;;16.80;1.00;;;;;;5055654;28;20048;-39
2023/03/14 04:22:40;;;;;;;14.95;3.60;;;16.80;1.00;;;;;;5054764;28;20044;-39
2023/03/14 04:25:10;;;;;;;12.20;2.88;;;16.80;1.00;;;;;;5055562;28;20044;-39
2023/03/14 04:27:42;;;;;;;14.70;2.80;;;16.70;1.00;;;;;;5055536;28;20044;-39
2023/03/14 04:30:17;;;;;;;15.15;3.42;;;16.70;1.00;;;;;;5055323;28;20075;-39
2023/03/14 04:32:52;;;;;;;17.08;3.17;;;16.70;1.00;;;;;;5054742;28;20045;-39
2023/03/14 04:35:22;;;;;;;13.88;3.50;;;16.70;1.00;;;;;;5055410;28;20171;-39
2023/03/14 04:37:53;;;;;;;11.02;2.45;;;16.70;1.00;;;;;;5055084;28;20059;-39
2023/03/14 04:40:21;;;;;;;12.55;3.70;;;16.70;1.00;;;;;;5055342;28;20090;-39
2023/03/14 04:42:50;;;;;;;14.80;3.72;;;16.70;1.00;;;;;;5054374;28;20080;-39
2023/03/14 04:45:17;;;;;;;11.43;3.00;;;16.70;1.00;;;;;;5055068;28;20068;-39
2023/03/14 04:47:45;;;;;;;12.27;2.70;;;16.70;1.00;;;;;;5055132;28;20092;-39
2023/03/14 04:50:16;;;;;;;13.25;3.00;;;16.60;1.00;;;;;;5055406;28;20239;-39
2023/03/14 04:52:43;;;;;;;11.52;2.63;;;16.60;1.00;;;;;;5054037;28;20131;-39
2023/03/14 04:55:10;;;;;;;15.30;2.83;;;16.60;1.00;;;;;;5054720;28;20050;-39
2023/03/14 04:57:37;;;;;;;8.43;2.08;;;16.60;1.00;;;;;;5054908;28;20037;-39
2023/03/14 05:00:08;;;;;;;16.27;3.30;;;16.60;1.00;;;;;;5054684;28;20547;-39
2023/03/14 05:02:55;;;;;;;12.80;2.78;;;16.60;1.00;;;;;;5071410;28;20083;-39
2023/03/14 05:05:42;;;;;;;12.82;2.92;;;16.60;1.00;;;;;;5065162;28;20052;-39
2023/03/14 05:08:30;;;;;;;9.40;2.33;;;16.60;1.00;;;;;;5032716;28;20059;-39
2023/03/14 05:11:18;;;;;;;13.15;2.40;;;16.50;1.00;;;;;;5023883;28;20048;-39
2023/03/14 05:14:03;;;;;;;15.88;3.00;;;16.50;1.00;;;;;;5062778;28;20044;-38
2023/03/14 05:16:43;;;;;;;14.30;2.70;;;16.50;1.00;;;;;;5034258;28;20044;-39
2023/03/14 05:19:22;;;;;;;9.43;2.38;;;16.50;1.00;;;;;;5054343;28;20044;-39
2023/03/14 05:22:07;;;;;;;10.52;1.83;;;16.50;1.00;;;;;;5064213;28;20413;-39
2023/03/14 05:24:58;;;;;;;21.35;3.05;;;16.40;1.00;;;;;;5054180;28;20048;-39
2023/03/14 05:27:37;;;;;;;15.40;4.13;;;16.40;1.00;;;;;;5072299;28;20399;-39
2023/03/14 05:30:30;;;;;;;10.88;2.28;;;16.40;1.00;;;;;;5033396;28;20048;-39
2023/03/14 05:33:17;;;;;;;10.50;2.22;;;16.40;1.00;;;;;;5070895;28;20110;-39
2023/03/14 05:36:02;;;;;;;9.88;1.50;;;16.40;1.00;;;;;;5072302;28;20048;-39
2023/03/14 05:38:47;;;;;;;15.25;2.45;;;16.40;1.00;;;;;;5072180;28;20610;-39
2023/03/14 05:41:26;;;;;;;11.35;2.03;;;16.40;1.00;;;;;;5054213;28;20051;-39
2023/03/14 05:43:56;;;;;;;7.70;1.73;;;16.30;1.00;;;;;;5071381;28;20080;-39
2023/03/14 05:46:37;;;;;;;11.20;2.15;;;16.30;1.00;;;;;;5072651;28;20036;-39
2023/03/14 05:49:24;;;;;;;15.20;2.33;;;16.30;1.00;;;;;;5056975;28;20045;-39
2023/03/14 05:52:14;;;;;;;11.35;3.03;;;16.30;1.00;;;;;;5024582;28;20424;-39
2023/03/14 05:54:56;;;;;;;5.15;1.48;;;16.30;1.00;;;;;;5052821;28;20052;-39
2023/03/14 05:57:35;;;;;;;9.23;1.50;;;16.30;1.00;;;;;;5050008;28;20052;-39
2023/03/14 06:00:22;;;;;;;11.57;1.67;;;16.30;1.00;;;;;;5045512;28;20052;-39
2023/03/14 06:03:01;;;;;;;12.77;2.17;;;16.30;1.00;;;;;;5053083;28;20044;-39
2023/03/14 06:05:32;;;;;;;12.27;1.60;;;16.30;1.00;;;;;;5037987;28;20041;-39
2023/03/14 06:08:00;;;;;;;7.05;1.88;;;16.20;1.00;;;;;;5071631;28;20569;-39
2023/03/14 06:10:30;;;;;;;10.02;2.10;;;16.30;1.00;;;;;;5053730;28;20040;-39
2023/03/14 06:12:57;;;;;;;5.35;2.05;;;16.20;1.00;;;;;;5052840;28;20463;-39
2023/03/14 06:15:24;;;;;;;12.18;2.03;;;16.20;1.00;;;;;;5053661;28;20043;-39
2023/03/14 06:17:55;;;;;;;7.85;1.70;;;16.20;1.00;;;;;;5053639;28;20094;-39
2023/03/14 06:20:22;;;;;;;10.80;1.70;;;16.20;1.00;;;;;;5053606;28;20044;-39
2023/03/14 06:22:49;;;;;;;5.38;1.48;;;16.20;1.00;;;;;;5049191;28;20049;-39
2023/03/14 06:25:16;;;;;;;7.30;1.58;;;16.20;1.00;;;;;;5043258;28;20056;-39
2023/03/14 06:27:46;;;;;;;8.30;1.77;;;16.20;1.00;;;;;;5037499;28;20106;-39
2023/03/14 06:30:14;;;;;;;5.30;1.23;;;16.20;1.00;;;;;;5041390;28;20052;-39
2023/03/14 06:32:41;;;;;;;9.48;2.17;;;16.10;1.00;;;;;;5039140;28;20045;-39
2023/03/14 06:35:11;;;;;;;8.70;1.77;;;16.20;1.00;;;;;;5047073;28;20044;-39
2023/03/14 06:37:41;;;;;;;5.05;1.63;;;16.10;1.00;;;;;;5057600;28;20516;-40
2023/03/14 06:40:10;;;;;;;6.78;1.23;;;16.10;1.00;;;;;;5057171;28;20094;-39
2023/03/14 06:42:53;;;;;;;5.85;1.60;;;16.10;1.00;;;;;;5056841;28;20522;-39
2023/03/14 06:45:23;;;;;;;8.13;1.35;;;16.10;1.00;;;;;;5057250;28;20052;-39
2023/03/14 06:47:51;;;;;;;12.70;2.60;;;16.10;1.00;;;;;;5057215;28;20045;-39
2023/03/14 06:50:22;;;;;;;9.38;1.30;;;16.10;1.00;;;;;;5057217;28;20226;-39
2023/03/14 06:52:50;;;;;;;6.07;1.00;;;16.10;1.00;;;;;;5056508;28;20083;-39
2023/03/14 06:55:21;;;;;;;6.55;1.15;;;16.10;1.00;;;;;;5057155;28;20044;-39
2023/03/14 06:57:48;;;;;;;6.90;1.10;;;16.00;1.00;;;;;;5057067;28;20563;-39
2023/03/14 07:00:16;;;;;;;4.88;1.50;;;16.00;1.00;;;;;;5057124;28;20417;-39
2023/03/14 07:02:43;;;;;;;4.35;1.10;;;16.00;1.00;;;;;;5056485;28;20047;-39
2023/03/14 07:05:36;;;;;;;4.93;1.07;;;16.00;1.00;;;;;;5069717;28;20536;-39
2023/03/14 07:08:02;;;;;;;6.95;1.60;;;16.00;1.00;;;;;;5056847;28;20095;-39
2023/03/14 07:10:29;;;;;;;5.75;1.40;;;16.00;1.00;;;;;;5056674;28;20040;-38
2023/03/14 07:12:56;;;;;;;4.75;1.15;;;16.00;1.00;;;;;;5056268;28;20420;-39
2023/03/14 07:15:26;;;;;;;3.70;0.60;;;16.00;1.00;;;;;;5056910;28;20044;-39
2023/03/14 07:17:57;;;;;;;4.28;1.00;;;16.00;1.00;;;;;;5056752;28;20052;-39
2023/03/14 07:20:25;;;;;;;9.15;1.38;;;15.90;1.00;;;;;;5056863;28;20047;-39
2023/03/14 07:22:52;;;;;;;3.17;1.33;;;15.90;1.00;;;;;;5055916;28;20504;-39
2023/03/14 07:25:30;;;;;;;8.50;1.65;;;15.90;1.00;;;;;;5056603;28;20059;-39
2023/03/14 07:27:57;;;;;;;6.20;1.10;;;15.90;1.00;;;;;;5056453;28;20072;-39
2023/03/14 07:30:23;;;;;;;7.28;1.33;;;15.90;1.00;;;;;;5056325;28;20047;-39
2023/03/14 07:32:51;;;;;;;3.42;0.90;;;15.90;1.00;;;;;;5055875;28;20049;-39
2023/03/14 07:35:22;;;;;;;6.10;0.90;;;15.90;1.00;;;;;;5056265;28;20040;-39
2023/03/14 07:37:48;;;;;;;6.72;1.30;;;15.90;1.00;;;;;;5056473;28;20041;-39
2023/03/14 07:40:19;;;;;;;4.90;1.00;;;15.80;1.00;;;;;;5055909;28;20573;-39
2023/03/14 07:42:46;;;;;;;6.93;1.60;;;15.80;1.00;;;;;;5055619;28;20068;-39
2023/03/14 07:45:27;;;;;;;3.50;0.95;;;15.80;1.00;;;;;;5056288;28;20380;-39
2023/03/14 07:47:57;;;;;;;7.95;1.35;;;15.80;1.00;;;;;;5074538;28;20056;-39
2023/03/14 07:50:27;;;;;;;3.60;0.63;;;15.80;1.00;;;;;;5074138;28;20079;-39
2023/03/14 07:52:54;;;;;;;6.88;1.40;;;15.80;1.00;;;;;;5073342;28;20039;-39
2023/03/14 07:55:21;;;;;;;3.50;1.10;;;15.80;1.00;;;;;;5073836;28;20094;-39
2023/03/14 07:57:48;;;;;;;5.47;1.25;;;15.80;1.00;;;;;;5074091;28;20116;-39
2023/03/14 08:00:15;;;;;;;7.28;0.90;;;15.80;1.00;;;;;;5073769;28;20497;-39
2023/03/14 08:02:42;;;;;;;5.65;1.45;;;15.80;1.00;;;;;;5073317;28;20058;-39
2023/03/14 08:05:10;;;;;;;5.00;1.13;;;15.80;1.00;;;;;;5073686;28;20388;-40
2023/03/14 08:07:37;;;;;;;5.72;1.38;;;15.80;1.00;;;;;;5073905;28;20079;-39
2023/03/14 08:10:04;;;;;;;6.70;1.30;;;15.80;1.00;;;;;;5073700;28;20051;-39
2023/03/14 08:12:35;;;;;;;4.15;1.63;;;15.70;1.00;;;;;;5073436;28;20044;-39
2023/03/14 08:15:02;;;;;;;9.43;1.52;;;15.70;1.00;;;;;;5073439;28;20040;-39
2023/03/14 08:17:29;;;;;;;8.05;1.33;;;15.70;1.00;;;;;;5073541;28;20127;-39
2023/03/14 08:19:56;;;;;;;6.35;1.10;;;15.70;1.00;;;;;;5073487;28;20043;-39
2023/03/14 08:22:23;;;;;;;7.68;1.58;;;15.70;1.00;;;;;;5072945;28;20557;-39
2023/03/14 08:24:49;;;;;;;3.83;1.00;;;15.70;1.00;;;;;;5073127;28;20515;-39
2023/03/14 08:27:16;;;;;;;8.77;1.30;;;15.70;1.00;;;;;;5073457;28;20370;-39
2023/03/14 08:29:44;;;;;;;4.82;1.00;;;15.70;1.00;;;;;;5073117;28;20048;-39
2023/03/14 08:32:10;;;;;;;7.07;3.13;;;15.70;1.00;;;;;;5073287;28;20063;-39
2023/03/14 08:34:37;;;;;;;3.75;1.27;;;15.70;1.00;;;;;;5072605;28;20036;-39
2023/03/14 08:37:05;;;;;;;8.35;1.42;;;15.70;1.00;;;;;;5073241;28;20044;-39
2023/03/14 08:39:49;;;;;;;5.35;1.67;;;15.60;1.00;;;;;;5072988;28;20036;-39
2023/03/14 08:42:16;;;;;;;7.72;1.60;;;15.60;1.00;;;;;;5072779;28;20483;-39
2023/03/14 08:44:43;;;;;;;6.00;1.73;;;15.60;1.00;;;;;;5072684;28;20040;-39
2023/03/14 08:47:10;;;;;;;7.80;1.42;;;15.60;1.00;;;;;;5073016;28;20040;-39
2023/03/14 08:49:37;;;;;;;9.02;0.93;;;15.60;1.00;;;;;;5072950;28;20048;-39
2023/03/14 08:52:04;;;;;;;10.02;1.95;;;15.60;1.00;;;;;;5072090;28;20086;-39
2023/03/14 08:54:31;;;;;;;4.95;1.10;;;15.60;1.00;;;;;;5072104;28;20048;-39
2023/03/14 08:56:58;;;;;;;9.30;2.33;;;15.60;1.00;;;;;;5072814;28;20057;-39
2023/03/14 08:59:25;;;;;;;8.75;1.52;;;15.60;1.00;;;;;;5072765;28;20055;-39
2023/03/14 09:01:52;;;;;;;8.85;1.10;;;15.60;1.00;;;;;;5072808;28;20044;-39
2023/03/14 09:04:18;;;;;;;10.57;1.35;;;15.60;1.00;;;;;;5070848;28;20045;-39
2023/03/14 09:06:45;;;;;;;7.07;1.55;;;15.60;1.00;;;;;;5072594;28;20049;-39
2023/03/14 09:09:13;;;;;;;4.75;1.23;;;15.60;1.00;;;;;;5072607;28;20053;-39
2023/03/14 09:11:40;;;;;;;9.60;1.17;;;15.60;1.00;;;;;;5072638;28;20044;-39
2023/03/14 09:14:07;;;;;;;9.80;2.53;;;15.50;1.00;;;;;;5071644;28;20040;-39
2023/03/14 09:16:33;;;;;;;4.15;1.23;;;15.60;1.00;;;;;;5072796;28;20514;-39
2023/03/14 09:19:00;;;;;;;8.90;1.85;;;15.60;1.00;;;;;;5072280;28;20032;-39
2023/03/14 09:21:27;;;;;;;8.15;1.08;;;15.50;1.00;;;;;;5072078;28;20506;-39
2023/03/14 09:23:54;;;;;;;8.02;1.15;;;15.60;1.00;;;;;;5071684;28;20067;-39
2023/03/14 09:26:21;;;;;;;4.90;0.85;;;15.60;1.00;;;;;;5072294;28;20044;-39
2023/03/14 09:28:48;;;;;;;13.98;2.33;;;15.60;1.00;;;;;;5072149;28;20056;-39
2023/03/14 09:31:16;;;;;;;6.18;1.23;;;15.50;1.00;;;;;;5072201;28;20127;-39
2023/03/14 09:33:44;;;;;;;9.43;1.65;;;15.60;1.00;;;;;;5071560;28;20036;-39
2023/03/14 09:36:11;;;;;;;5.38;1.45;;;15.60;1.00;;;;;;5071976;28;20123;-39
2023/03/14 09:38:38;;;;;;;7.05;2.10;;;15.50;1.00;;;;;;5071863;28;20055;-39
2023/03/14 09:41:18;;;;;;;6.85;1.45;;;15.50;1.00;;;;;;5072005;28;20165;-39
2023/03/14 09:43:46;;;;;;;12.25;1.10;;;15.50;1.00;;;;;;5071187;28;20055;-39
2023/03/14 09:46:14;;;;;;;7.10;1.38;;;15.60;1.00;;;;;;5071896;28;20036;-39
2023/03/14 09:48:41;;;;;;;9.48;1.90;;;15.60;1.00;;;;;;5071834;28;20080;-39
2023/03/14 09:51:14;;;;;;;10.40;1.40;;;15.60;1.00;;;;;;5071890;28;20079;-39
2023/03/14 09:53:44;;;;;;;8.38;1.48;;;15.60;1.00;;;;;;5053217;28;20041;-39
2023/03/14 09:56:18;;;;;;;7.28;1.23;;;15.60;1.00;;;;;;5071603;28;20074;-39
2023/03/14 09:58:51;;;;;;;13.13;2.05;;;15.60;1.00;;;;;;5071305;28;20067;-39
2023/03/14 10:01:24;;;;;;;6.53;1.65;;;15.60;1.00;;;;;;5071691;28;20052;-39
2023/03/14 10:03:54;;;;;;;5.32;1.15;;;15.70;1.00;;;;;;5070985;28;20086;-39
2023/03/14 10:06:25;;;;;;;5.45;1.20;;;15.70;1.00;;;;;;5071647;28;20079;-39
2023/03/14 10:08:52;;;;;;;7.13;1.40;;;15.70;1.00;;;;;;5071705;28;20044;-39
2023/03/14 10:11:20;;;;;;;12.63;2.15;;;15.70;1.00;;;;;;5071759;28;20049;-39
2023/03/14 10:14:14;;;;;;;4.63;1.90;;;15.80;1.00;;;;;;5070633;28;20057;-39
2023/03/14 10:16:43;;;;;;;6.50;1.10;;;15.80;1.00;;;;;;5071858;28;20040;-39
2023/03/14 10:19:15;;;;;;;8.07;1.40;;;15.80;1.00;;;;;;5071534;28;20488;-39
2023/03/14 10:21:52;;;;;;;7.38;1.80;;;15.80;1.00;;;;;;5071640;28;20111;-39
2023/03/14 10:24:26;;;;;;;9.82;1.58;;;15.80;1.00;;;;;;5070832;28;20185;-39
2023/03/14 10:26:54;;;;;;;8.77;1.50;;;15.80;1.00;;;;;;5071739;28;20102;-39
2023/03/14 10:29:21;;;;;;;5.57;1.38;;;15.80;1.00;;;;;;5071482;28;20052;-39
2023/03/14 10:31:55;;;;;;;4.32;1.00;;;15.90;1.00;;;;;;5071533;28;20454;-39
2023/03/14 10:34:24;;;;;;;;;;;15.90;1.00;;;;;;5071060;28;20043;-39
2023/03/14 10:36:57;;;;;;;5.10;1.38;;;15.90;1.00;;;;;;5071606;28;19920;-39
2023/03/14 10:39:28;;;;;;;5.88;1.45;;;15.90;1.00;;;;;;5071346;28;20044;-39
2023/03/14 10:42:12;;;;;;;4.53;1.17;;;15.90;1.00;;;;;;5071527;28;20041;-39
2023/03/14 10:44:39;;;;;;;4.25;1.15;;;16.00;1.00;;;;;;5070933;28;20045;-39
2023/03/14 10:47:06;;;;;;;2.97;1.00;;;16.00;1.00;;;;;;5071140;28;20041;-39
2023/03/14 10:49:35;;;;;;;5.95;1.52;;;16.00;1.00;;;;;;5071051;28;20449;-39
2023/03/14 10:52:22;;;;;;;3.95;1.70;;;16.00;1.00;;;;;;5071338;28;20044;-39
2023/03/14 10:54:59;;;;;;;8.38;1.55;;;16.00;1.00;;;;;;5070828;28;20110;-39
2023/03/14 10:57:26;;;;;;;8.70;1.33;;;16.00;1.00;;;;;;5071253;28;20047;-39
2023/03/14 10:59:56;;;;;;;9.73;1.52;;;16.00;1.00;;;;;;5071308;28;20044;-39
2023/03/14 11:02:48;;;;;;;5.88;1.50;;;16.00;1.00;;;;;;5070961;28;20040;-39
2023/03/14 11:05:24;;;;;;;7.47;1.50;;;16.00;1.00;;;;;;5071124;28;20044;-39
2023/03/14 11:07:56;;;;;;;5.30;1.27;;;16.10;1.00;;;;;;5070977;28;20053;-39
2023/03/14 11:10:32;;;;;;;7.38;1.45;;;16.00;1.00;;;;;;5071132;28;20127;-39
2023/03/14 11:13:15;;;;;;;5.20;1.42;;;16.10;1.00;;;;;;5069951;28;20403;-39
2023/03/14 11:16:01;;;;;;;7.70;0.88;;;16.10;1.00;;;;;;5073561;28;20045;-39
2023/03/14 11:18:34;;;;;;;4.93;1.08;;;16.10;1.00;;;;;;5074622;28;20124;-39
2023/03/14 11:21:28;;;;;;;3.10;1.00;;;16.10;1.00;;;;;;5074923;28;20400;-38
2023/03/14 11:24:12;;;;;;;7.32;1.90;;;16.10;1.00;;;;;;5073921;28;20098;-39
2023/03/14 11:26:57;;;;;;;5.38;1.02;;;16.10;1.00;;;;;;5074484;28;20049;-39
2023/03/14 11:29:40;;;;;;;6.85;1.25;;;16.10;1.00;;;;;;5074843;28;20041;-39
2023/03/14 11:32:42;;;;;;;2.97;0.82;;;16.10;1.00;;;;;;5074587;28;20125;-39
2023/03/14 11:35:19;;;;;;;4.68;1.25;;;16.10;1.00;;;;;;5074280;28;20037;-39
2023/03/14 11:37:54;;;;;;;2.80;1.05;;;16.10;1.00;;;;;;5074441;28;20036;-39
2023/03/14 11:40:25;;;;;;;8.20;1.38;;;16.10;1.00;;;;;;5074324;28;20045;-39
2023/03/14 11:43:11;;;;;;;5.45;1.05;;;16.10;1.00;;;;;;5073645;28;20044;-39
2023/03/14 11:45:41;;;;;;;4.13;1.10;;;16.10;1.00;;;;;;5074431;28;20040;-40
2023/03/14 11:48:36;;;;;;;5.68;1.85;;;16.10;1.00;;;;;;5056552;28;20049;-39
2023/03/14 11:51:12;;;;;;;6.05;1.00;;;16.10;1.00;;;;;;5061403;28;20446;-39
2023/03/14 11:53:50;;;;;;;5.30;1.35;;;16.10;1.00;;;;;;5073315;28;20127;-39
2023/03/14 11:56:45;;;;;;;5.10;0.98;;;16.10;1.00;;;;;;5073935;28;20045;-39
2023/03/14 11:59:45;;;;;;;5.43;1.20;;;16.10;1.00;;;;;;5073794;28;20127;-39
2023/03/14 12:02:40;;;;;;;6.07;1.90;;;16.20;1.00;;;;;;5073366;28;20032;-39
2023/03/14 12:05:22;;;;;;;4.53;1.45;;;16.10;1.00;;;;;;5073709;28;20052;-39
2023/03/14 12:08:09;;;;;;;3.75;1.63;;;16.10;1.00;;;;;;5073922;28;20048;-39
2023/03/14 12:10:40;;;;;;;3.63;0.98;;;16.10;1.00;;;;;;5073707;28;20094;-39
2023/03/14 12:13:10;;;;;;;4.03;1.23;;;16.10;1.00;;;;;;5073011;28;20079;-39
2023/03/14 12:15:47;;;;;;;5.70;1.13;;;16.10;1.00;;;;;;5073568;28;20040;-39
2023/03/14 12:18:30;;;;;;;2.58;0.93;;;16.10;1.00;;;;;;5073546;28;20101;-39
2023/03/14 12:21:03;;;;;;;6.65;1.40;;;16.10;1.00;;;;;;5073476;28;20060;-39
2023/03/14 12:23:49;;;;;;;5.72;1.45;;;16.10;1.00;;;;;;5072853;28;20036;-39
2023/03/14 12:26:19;;;;;;;4.20;0.77;;;16.10;1.00;;;;;;5072222;28;20041;-39
2023/03/14 12:28:56;;;;;;;3.38;1.20;;;16.10;1.00;;;;;;5073502;28;20032;-39
2023/03/14 12:31:32;;;;;;;3.53;1.02;;;16.10;1.00;;;;;;5073382;28;20047;-39
2023/03/14 12:34:08;;;;;;;4.43;1.10;;;16.10;1.00;;;;;;5072559;28;20044;-39
2023/03/14 12:36:50;;;;;;;4.03;1.52;;;16.10;1.00;;;;;;5073275;28;20059;-39
2023/03/14 12:39:22;;;;;;;2.80;1.10;;;16.10;1.00;;;;;;5069935;22;20052;-38
2023/03/14 12:42:01;;;;;;;4.65;1.33;;;16.10;1.00;;;;;;5079386;28;20036;-38
2023/03/14 12:44:38;;;;;;;5.68;0.90;;;16.00;1.00;;;;;;5092508;28;20459;-37
2023/03/14 12:47:20;;;;;;;2.35;1.05;;;16.00;1.00;;;;;;5093219;28;20081;-37
2023/03/14 12:49:50;;;;;;;3.83;1.35;;;16.00;1.00;;;;;;5081327;28;20043;-37
2023/03/14 12:52:21;;;;;;;3.28;1.20;;;16.00;1.00;;;;;;5072856;28;20037;-37
2023/03/14 12:55:04;;;;;;;6.28;1.30;;;16.00;1.00;;;;;;5072412;28;20044;-37
2023/03/14 12:57:45;;;;;;;4.18;0.70;;;16.00;1.00;;;;;;5072854;28;20105;-37
2023/03/14 13:00:21;;;;;;;6.07;1.45;;;16.00;1.00;;;;;;5072802;28;20278;-37
2023/03/14 13:02:49;;;;;;;3.00;0.85;;;16.00;1.00;;;;;;5072096;28;20079;-37
2023/03/14 13:05:20;;;;;;;5.75;1.45;;;16.00;1.00;;;;;;5054767;28;20383;-36
2023/03/14 13:07:48;;;;;;;8.85;1.33;;;16.00;1.00;;;;;;5072762;28;20055;-37
2023/03/14 13:10:23;;;;;;;9.15;1.48;;;16.00;1.00;;;;;;5072554;28;20098;-37
2023/03/14 13:12:56;;;;;;;8.63;1.40;;;16.00;1.00;;;;;;5071859;28;20165;-36
2023/03/14 13:15:31;;;;;;;3.08;0.77;;;16.00;1.00;;;;;;5072325;28;20047;-37
2023/03/14 13:18:12;;;;;;;4.70;1.10;;;16.00;1.00;;;;;;5072571;28;20060;-37
2023/03/14 13:20:55;;;;;;;7.03;1.20;;;16.00;1.00;;;;;;5072555;28;20102;-37